createdAt,value
2022-11-20T00:00:11.837Z,44.05
2022-11-20T00:00:35.657Z,45.78
2022-11-20T00:00:58.401Z,45.13
2022-11-20T00:01:21.924Z,45.05
2022-11-20T00:01:45.807Z,45.72
2022-11-20T00:02:08.630Z,46.78
2022-11-20T00:02:31.375Z,44.35
2022-11-20T00:02:54.043Z,44.65
2022-11-20T00:03:16.730Z,46.47
2022-11-20T00:03:39.515Z,47.55
2022-11-20T00:04:02.204Z,44.80
2022-11-20T00:04:24.910Z,43.40
2022-11-20T00:04:49.001Z,46.05
2022-11-20T00:05:11.801Z,45.30
2022-11-20T00:05:34.535Z,46.97
2022-11-20T00:06:01.764Z,46.58
2022-11-20T00:06:24.654Z,46.47
2022-11-20T00:06:48.075Z,45.97
2022-11-20T00:07:10.887Z,44.97
2022-11-20T00:07:33.642Z,43.72
2022-11-20T00:07:56.319Z,45.45
2022-11-20T00:08:19.001Z,42.92
2022-11-20T00:08:43.053Z,44.55
2022-11-20T00:09:06.442Z,45.80
2022-11-20T00:09:29.124Z,48.45
2022-11-20T00:09:51.903Z,47.28
2022-11-20T00:10:14.598Z,48.03
2022-11-20T00:10:38.273Z,46.60
2022-11-20T00:11:04.597Z,45.15
2022-11-20T00:11:28.106Z,45.72
2022-11-20T00:11:50.784Z,42.90
2022-11-20T00:12:13.623Z,44.38
2022-11-20T00:12:36.318Z,42.42
2022-11-20T00:12:59.328Z,44.28
2022-11-20T00:13:22.085Z,42.08
2022-11-20T00:13:44.810Z,42.92
2022-11-20T00:14:07.523Z,41.75
2022-11-20T00:14:30.243Z,43.30
2022-11-20T00:14:52.973Z,42.47
2022-11-20T00:15:15.763Z,42.17
2022-11-20T00:15:40.773Z,43.50
2022-11-20T00:16:07.043Z,44.05
2022-11-20T00:16:31.078Z,45.95
2022-11-20T00:16:53.808Z,48.72
2022-11-20T00:17:16.518Z,46.15
2022-11-20T00:17:39.364Z,43.72
2022-11-20T00:18:02.099Z,44.63
2022-11-20T00:18:24.818Z,44.22
2022-11-20T00:18:47.773Z,47.13
2022-11-20T00:19:11.565Z,44.25
2022-11-20T00:19:34.224Z,44.22
2022-11-20T00:19:58.358Z,43.28
2022-11-20T00:20:20.968Z,41.67
2022-11-20T00:20:43.688Z,42.92
2022-11-20T00:21:07.208Z,43.17
2022-11-20T00:21:30.003Z,42.38
2022-11-20T00:21:54.824Z,42.22
2022-11-20T00:22:17.498Z,39.88
2022-11-20T00:22:40.824Z,42.22
2022-11-20T00:23:03.584Z,41.60
2022-11-20T00:23:26.288Z,41.55
2022-11-20T00:23:49.093Z,42.25
2022-11-20T00:24:14.082Z,39.13
2022-11-20T00:24:41.756Z,39.65
2022-11-20T00:25:06.719Z,42.63
2022-11-20T00:25:29.344Z,40.30
2022-11-20T00:25:53.149Z,40.78
2022-11-20T00:26:17.032Z,41.33
2022-11-20T00:26:39.768Z,42.33
2022-11-20T00:27:02.511Z,41.38
2022-11-20T00:27:25.223Z,39.17
2022-11-20T00:27:47.980Z,39.72
2022-11-20T00:28:10.724Z,39.45
2022-11-20T00:28:36.613Z,34.55
2022-11-20T00:29:00.888Z,35.22
2022-11-20T00:29:23.747Z,35.80
2022-11-20T00:29:49.958Z,35.10
2022-11-20T00:30:15.007Z,33.97
2022-11-20T00:30:38.329Z,34.63
2022-11-20T00:31:05.187Z,33.72
2022-11-20T00:31:28.508Z,34.22
2022-11-20T00:31:51.205Z,37.08
2022-11-20T00:32:13.924Z,35.35
2022-11-20T00:32:36.703Z,35.00
2022-11-20T00:32:59.397Z,35.35
2022-11-20T00:33:22.059Z,34.55
2022-11-20T00:33:45.044Z,34.50
2022-11-20T00:34:07.819Z,34.90
2022-11-20T00:34:30.563Z,36.28
2022-11-20T00:34:53.308Z,37.55
2022-11-20T00:35:17.668Z,36.83
2022-11-20T00:35:40.608Z,33.08
2022-11-20T00:36:03.834Z,34.30
2022-11-20T00:36:28.648Z,32.47
2022-11-20T00:36:51.508Z,32.10
2022-11-20T00:37:14.222Z,32.45
2022-11-20T00:37:36.963Z,32.25
2022-11-20T00:37:59.687Z,32.50
2022-11-20T00:38:22.376Z,32.92
2022-11-20T00:38:45.617Z,30.60
2022-11-20T00:39:08.448Z,30.70
2022-11-20T00:39:31.133Z,31.92
2022-11-20T00:39:53.868Z,29.90
2022-11-20T00:40:16.780Z,30.30
2022-11-20T00:40:39.596Z,30.65
2022-11-20T00:41:03.749Z,30.42
2022-11-20T00:41:26.803Z,30.33
2022-11-20T00:41:50.245Z,30.77
2022-11-20T00:42:15.514Z,32.63
2022-11-20T00:42:38.243Z,31.52
2022-11-20T00:43:00.960Z,31.90
2022-11-20T00:43:23.644Z,31.98
2022-11-20T00:43:46.404Z,31.73
2022-11-20T00:44:09.124Z,31.00
2022-11-20T00:44:32.001Z,32.75
2022-11-20T00:44:54.734Z,32.65
2022-11-20T00:45:17.679Z,31.73
2022-11-20T00:45:41.609Z,31.85
2022-11-20T00:46:05.815Z,30.88
2022-11-20T00:46:28.796Z,31.33
2022-11-20T00:46:51.494Z,31.20
2022-11-20T00:47:14.192Z,31.30
2022-11-20T00:47:36.853Z,30.98
2022-11-20T00:47:59.514Z,30.80
2022-11-20T00:48:22.570Z,29.90
2022-11-20T00:48:45.280Z,31.52
2022-11-20T00:49:08.095Z,29.80
2022-11-20T00:49:30.774Z,29.38
2022-11-20T00:49:53.528Z,29.08
2022-11-20T00:50:17.799Z,30.20
2022-11-20T00:50:42.377Z,31.58
2022-11-20T00:51:05.179Z,30.80
2022-11-20T00:51:28.554Z,29.38
2022-11-20T00:51:51.428Z,29.95
2022-11-20T00:52:14.129Z,29.48
2022-11-20T00:52:36.798Z,30.08
2022-11-20T00:52:59.484Z,30.83
2022-11-20T00:53:22.244Z,29.27
2022-11-20T00:53:44.956Z,28.33
2022-11-20T00:54:07.658Z,28.52
2022-11-20T00:54:30.339Z,29.05
2022-11-20T00:54:53.022Z,28.75
2022-11-20T00:55:15.803Z,27.20
2022-11-20T00:55:38.587Z,26.63
2022-11-20T00:56:02.581Z,25.60
2022-11-20T00:56:25.314Z,26.75
2022-11-20T00:56:48.097Z,27.60
2022-11-20T00:57:10.876Z,27.38
2022-11-20T00:57:33.604Z,26.23
2022-11-20T00:57:56.264Z,26.88
2022-11-20T00:58:18.985Z,25.23
2022-11-20T00:58:42.474Z,25.60
2022-11-20T00:59:05.180Z,23.75
2022-11-20T00:59:27.848Z,24.05
2022-11-20T00:59:52.959Z,25.98
2022-11-20T01:00:17.189Z,25.35
2022-11-20T01:00:39.968Z,26.40
2022-11-20T01:01:03.262Z,27.73
2022-11-20T01:01:26.954Z,25.92
2022-11-20T01:01:53.030Z,27.23
2022-11-20T01:02:17.463Z,27.55
2022-11-20T01:02:40.407Z,26.45
2022-11-20T01:03:05.375Z,25.63
2022-11-20T01:03:28.164Z,27.98
2022-11-20T01:03:51.865Z,28.58
2022-11-20T01:04:14.572Z,28.25
2022-11-20T01:04:37.281Z,28.35
2022-11-20T01:05:00.017Z,25.23
2022-11-20T01:05:24.167Z,25.08
2022-11-20T01:05:46.987Z,27.50
2022-11-20T01:06:11.603Z,27.33
2022-11-20T01:06:35.188Z,27.48
2022-11-20T01:06:57.937Z,25.75
2022-11-20T01:07:20.691Z,27.08
2022-11-20T01:07:43.456Z,28.23
2022-11-20T01:08:06.407Z,26.98
2022-11-20T01:08:31.897Z,27.17
2022-11-20T01:08:55.328Z,27.88
2022-11-20T01:09:19.338Z,25.92
2022-11-20T01:09:42.259Z,27.55
2022-11-20T01:10:07.694Z,27.50
2022-11-20T01:10:30.712Z,28.58
2022-11-20T01:10:53.449Z,28.27
2022-11-20T01:11:17.447Z,28.55
2022-11-20T01:11:40.967Z,28.73
2022-11-20T01:12:03.709Z,27.08
2022-11-20T01:12:26.486Z,26.60
2022-11-20T01:13:09.075Z,26.40
2022-11-20T01:13:40.543Z,28.75
2022-11-20T01:14:04.497Z,27.38
2022-11-20T01:14:27.339Z,27.92
2022-11-20T01:14:50.086Z,27.92
2022-11-20T01:15:12.812Z,27.65
2022-11-20T01:15:35.617Z,26.42
2022-11-20T01:16:03.852Z,26.35
2022-11-20T01:16:31.884Z,26.38
2022-11-20T01:16:54.630Z,27.88
2022-11-20T01:17:17.332Z,27.80
2022-11-20T01:17:40.053Z,27.42
2022-11-20T01:18:02.869Z,28.98
2022-11-20T01:18:25.708Z,27.23
2022-11-20T01:18:50.531Z,26.58
2022-11-20T01:19:17.647Z,27.80
2022-11-20T01:19:41.139Z,27.98
2022-11-20T01:20:04.239Z,26.65
2022-11-20T01:20:28.382Z,26.80
2022-11-20T01:20:51.229Z,26.90
2022-11-20T01:21:15.213Z,27.50
2022-11-20T01:21:38.933Z,27.73
2022-11-20T01:22:04.278Z,28.15
2022-11-20T01:22:26.973Z,26.02
2022-11-20T01:22:49.664Z,26.08
2022-11-20T01:23:12.419Z,27.52
2022-11-20T01:23:35.433Z,26.88
2022-11-20T01:23:58.212Z,27.85
2022-11-20T01:24:22.448Z,26.25
2022-11-20T01:24:45.317Z,27.88
2022-11-20T01:25:08.705Z,27.63
2022-11-20T01:25:31.413Z,26.77
2022-11-20T01:25:54.145Z,27.45
2022-11-20T01:26:19.593Z,26.45
2022-11-20T01:26:43.299Z,27.10
2022-11-20T01:27:07.049Z,26.08
2022-11-20T01:27:29.701Z,28.00
2022-11-20T01:27:52.488Z,27.92
2022-11-20T01:28:15.275Z,28.92
2022-11-20T01:28:38.088Z,28.13
2022-11-20T01:29:00.958Z,28.63
2022-11-20T01:29:24.722Z,29.25
2022-11-20T01:29:47.859Z,29.70
2022-11-20T01:30:12.834Z,28.33
2022-11-20T01:30:35.926Z,28.98
2022-11-20T01:30:58.664Z,29.55
2022-11-20T01:31:22.658Z,30.50
2022-11-20T01:31:45.467Z,28.48
2022-11-20T01:32:08.259Z,28.63
2022-11-20T01:32:30.883Z,29.63
2022-11-20T01:32:53.599Z,31.33
2022-11-20T01:33:16.376Z,28.73
2022-11-20T01:33:39.069Z,28.67
2022-11-20T01:34:04.511Z,28.50
2022-11-20T01:34:27.349Z,29.48
2022-11-20T01:34:50.084Z,30.85
2022-11-20T01:35:12.829Z,30.73
2022-11-20T01:35:37.133Z,29.92
2022-11-20T01:36:05.667Z,28.30
2022-11-20T01:36:29.513Z,28.17
2022-11-20T01:36:52.777Z,28.45
2022-11-20T01:37:16.581Z,30.10
2022-11-20T01:37:39.500Z,30.33
2022-11-20T01:38:02.189Z,30.30
2022-11-20T01:38:24.899Z,31.08
2022-11-20T01:38:47.553Z,29.60
2022-11-20T01:39:12.596Z,29.60
2022-11-20T01:39:35.459Z,31.00
2022-11-20T01:39:58.159Z,30.05
2022-11-20T01:40:20.915Z,30.17
2022-11-20T01:40:43.678Z,29.75
2022-11-20T01:41:06.638Z,31.08
2022-11-20T01:41:49.385Z,29.33
2022-11-20T01:42:30.479Z,29.15
2022-11-20T01:43:22.793Z,28.38
2022-11-20T01:43:45.470Z,29.75
2022-11-20T01:44:08.303Z,29.75
2022-11-20T01:44:52.259Z,30.17
2022-11-20T01:45:57.126Z,27.95
2022-11-20T01:46:20.023Z,28.98
2022-11-20T01:46:46.788Z,27.60
2022-11-20T01:47:09.619Z,29.13
2022-11-20T01:47:34.729Z,27.70
2022-11-20T01:47:58.000Z,28.70
2022-11-20T01:48:21.175Z,26.42
2022-11-20T01:48:47.775Z,27.65
2022-11-20T01:49:12.331Z,26.55
2022-11-20T01:49:38.030Z,25.17
2022-11-20T01:50:04.459Z,25.45
2022-11-20T01:50:28.331Z,26.10
2022-11-20T01:50:52.581Z,26.83
2022-11-20T01:51:19.431Z,27.13
2022-11-20T01:51:43.691Z,26.60
2022-11-20T01:52:08.982Z,25.95
2022-11-20T01:52:34.237Z,27.27
2022-11-20T01:52:57.930Z,27.65
2022-11-20T01:53:22.332Z,27.10
2022-11-20T01:53:45.059Z,26.65
2022-11-20T01:54:08.668Z,26.83
2022-11-20T01:54:32.676Z,26.67
2022-11-20T01:54:57.266Z,28.15
2022-11-20T01:55:21.355Z,26.20
2022-11-20T01:55:46.576Z,26.40
2022-11-20T01:56:11.156Z,27.15
2022-11-20T01:56:35.956Z,28.45
2022-11-20T01:56:58.947Z,26.83
2022-11-20T01:57:21.746Z,27.80
2022-11-20T01:57:44.487Z,27.50
2022-11-20T01:58:07.210Z,26.05
2022-11-20T01:58:32.067Z,28.42
2022-11-20T01:58:57.736Z,27.83
2022-11-20T01:59:20.706Z,27.98
2022-11-20T01:59:46.427Z,28.17
2022-11-20T02:00:11.169Z,29.65
2022-11-20T02:00:37.031Z,30.08
2022-11-20T02:00:59.730Z,29.35
2022-11-20T02:01:22.526Z,31.08
2022-11-20T02:01:45.351Z,31.70
2022-11-20T02:02:08.231Z,31.02
2022-11-20T02:02:30.946Z,29.48
2022-11-20T02:02:55.396Z,28.48
2022-11-20T02:03:18.685Z,27.50
2022-11-20T02:03:41.552Z,27.02
2022-11-20T02:04:04.496Z,27.00
2022-11-20T02:04:27.291Z,26.83
2022-11-20T02:04:50.751Z,26.75
2022-11-20T02:05:19.136Z,27.58
2022-11-20T02:05:44.966Z,26.17
2022-11-20T02:06:13.477Z,26.15
2022-11-20T02:06:37.217Z,24.55
2022-11-20T02:07:01.571Z,25.08
2022-11-20T02:07:24.400Z,24.85
2022-11-20T02:07:47.201Z,24.92
2022-11-20T02:08:09.992Z,24.67
2022-11-20T02:08:35.468Z,25.45
2022-11-20T02:08:58.175Z,25.13
2022-11-20T02:09:23.795Z,22.42
2022-11-20T02:09:46.746Z,22.98
2022-11-20T02:10:09.627Z,22.95
2022-11-20T02:10:33.193Z,22.58
2022-11-20T02:10:56.107Z,22.55
2022-11-20T02:11:21.343Z,22.95
2022-11-20T02:11:44.077Z,23.35
2022-11-20T02:12:26.967Z,23.05
2022-11-20T02:13:08.399Z,22.17
2022-11-20T02:13:46.628Z,20.50
2022-11-20T02:14:09.371Z,21.10
2022-11-20T02:14:32.128Z,22.63
2022-11-20T02:14:54.925Z,22.88
2022-11-20T02:15:17.588Z,22.25
2022-11-20T02:15:40.310Z,21.67
2022-11-20T02:16:03.036Z,19.90
2022-11-20T02:16:26.566Z,20.95
2022-11-20T02:16:49.570Z,20.40
2022-11-20T02:17:12.295Z,20.45
2022-11-20T02:17:35.143Z,21.25
2022-11-20T02:17:57.934Z,22.25
2022-11-20T02:18:21.455Z,21.88
2022-11-20T02:18:44.586Z,21.58
2022-11-20T02:19:08.807Z,20.63
2022-11-20T02:19:32.287Z,19.65
2022-11-20T02:19:55.110Z,20.60
2022-11-20T02:20:17.880Z,20.73
2022-11-20T02:20:40.787Z,21.45
2022-11-20T02:21:06.890Z,19.17
2022-11-20T02:21:35.969Z,21.05
2022-11-20T02:22:03.495Z,19.67
2022-11-20T02:22:28.796Z,19.23
2022-11-20T02:22:54.766Z,20.80
2022-11-20T02:23:20.396Z,20.42
2022-11-20T02:23:56.961Z,20.40
2022-11-20T02:24:19.826Z,20.13
2022-11-20T02:24:42.686Z,20.90
2022-11-20T02:25:05.748Z,19.92
2022-11-20T02:25:28.458Z,19.75
2022-11-20T02:25:51.141Z,20.58
2022-11-20T02:26:14.206Z,19.80
2022-11-20T02:26:44.010Z,19.17
2022-11-20T02:27:07.630Z,19.67
2022-11-20T02:27:30.361Z,20.10
2022-11-20T02:27:53.019Z,20.27
2022-11-20T02:28:15.858Z,20.13
2022-11-20T02:28:38.606Z,19.83
2022-11-20T02:29:02.176Z,19.75
2022-11-20T02:29:26.084Z,19.08
2022-11-20T02:29:51.602Z,20.52
2022-11-20T02:30:14.486Z,19.85
2022-11-20T02:30:37.136Z,19.77
2022-11-20T02:30:59.753Z,18.85
2022-11-20T02:31:22.409Z,19.45
2022-11-20T02:31:47.603Z,18.75
2022-11-20T02:32:19.282Z,19.58
2022-11-20T02:32:42.116Z,20.98
2022-11-20T02:33:04.817Z,20.48
2022-11-20T02:33:30.017Z,18.63
2022-11-20T02:33:56.691Z,18.92
2022-11-20T02:34:19.411Z,19.35
2022-11-20T02:34:42.153Z,18.60
2022-11-20T02:35:09.631Z,18.40
2022-11-20T02:35:42.887Z,18.23
2022-11-20T02:36:06.075Z,17.80
2022-11-20T02:36:28.866Z,17.95
2022-11-20T02:36:51.926Z,18.08
2022-11-20T02:37:14.647Z,17.50
2022-11-20T02:37:38.471Z,17.25
2022-11-20T02:38:03.109Z,17.67
2022-11-20T02:38:25.754Z,18.17
2022-11-20T02:38:48.514Z,17.42
2022-11-20T02:39:13.273Z,18.10
2022-11-20T02:39:36.162Z,17.23
2022-11-20T02:39:58.874Z,17.13
2022-11-20T02:40:21.662Z,16.05
2022-11-20T02:40:44.423Z,15.68
2022-11-20T02:41:07.148Z,17.30
2022-11-20T02:41:34.547Z,16.58
2022-11-20T02:41:57.512Z,16.00
2022-11-20T02:42:20.217Z,15.68
2022-11-20T02:42:43.006Z,15.27
2022-11-20T02:43:05.758Z,14.95
2022-11-20T02:43:28.652Z,15.30
2022-11-20T02:43:51.357Z,15.38
2022-11-20T02:44:14.064Z,16.20
2022-11-20T02:44:38.238Z,16.17
2022-11-20T02:45:00.997Z,15.50
2022-11-20T02:45:24.047Z,15.20
2022-11-20T02:45:46.717Z,14.50
2022-11-20T02:46:11.953Z,14.45
2022-11-20T02:46:34.724Z,15.98
2022-11-20T02:46:58.668Z,15.35
2022-11-20T02:47:21.408Z,14.60
2022-11-20T02:47:46.372Z,14.35
2022-11-20T02:48:09.004Z,15.73
2022-11-20T02:48:33.913Z,16.13
2022-11-20T02:48:57.203Z,14.60
2022-11-20T02:49:20.251Z,14.60
2022-11-20T02:49:43.258Z,13.80
2022-11-20T02:50:07.958Z,14.43
2022-11-20T02:50:30.617Z,14.60
2022-11-20T02:50:53.293Z,15.05
2022-11-20T02:51:16.103Z,15.00
2022-11-20T02:51:38.753Z,15.23
2022-11-20T02:52:01.602Z,14.88
2022-11-20T02:52:24.317Z,14.90
2022-11-20T02:52:47.363Z,15.13
2022-11-20T02:53:10.129Z,15.13
2022-11-20T02:53:32.962Z,15.35
2022-11-20T02:53:55.673Z,15.35
2022-11-20T02:54:19.927Z,14.40
2022-11-20T02:54:42.706Z,15.43
2022-11-20T02:55:06.674Z,15.07
2022-11-20T02:55:29.376Z,14.50
2022-11-20T02:55:54.472Z,14.15
2022-11-20T02:56:17.182Z,14.98
2022-11-20T02:56:42.340Z,15.13
2022-11-20T02:57:05.110Z,14.65
2022-11-20T02:57:27.823Z,14.60
2022-11-20T02:57:50.504Z,14.50
2022-11-20T02:58:13.380Z,14.50
2022-11-20T02:58:36.117Z,15.50
2022-11-20T02:58:58.724Z,15.52
2022-11-20T02:59:21.747Z,15.23
2022-11-20T02:59:44.865Z,15.60
2022-11-20T03:00:09.384Z,15.90
2022-11-20T03:00:33.125Z,15.95
2022-11-20T03:00:55.908Z,16.20
2022-11-20T03:01:18.672Z,15.57
2022-11-20T03:01:41.491Z,14.93
2022-11-20T03:02:04.220Z,15.95
2022-11-20T03:02:26.944Z,16.52
2022-11-20T03:02:49.686Z,15.70
2022-11-20T03:03:12.476Z,15.93
2022-11-20T03:03:35.186Z,15.50
2022-11-20T03:03:57.953Z,15.98
2022-11-20T03:04:20.968Z,15.63
2022-11-20T03:04:43.673Z,15.98
2022-11-20T03:05:06.713Z,16.35
2022-11-20T03:05:29.454Z,15.52
2022-11-20T03:05:52.299Z,15.02
2022-11-20T03:06:15.215Z,15.68
2022-11-20T03:06:37.918Z,15.82
2022-11-20T03:07:00.710Z,16.23
2022-11-20T03:07:23.455Z,15.85
2022-11-20T03:07:46.203Z,15.63
2022-11-20T03:08:08.825Z,15.20
2022-11-20T03:08:31.509Z,15.57
2022-11-20T03:08:54.259Z,15.60
2022-11-20T03:09:19.919Z,15.80
2022-11-20T03:09:44.333Z,15.30
2022-11-20T03:10:08.953Z,15.18
2022-11-20T03:10:31.613Z,15.10
2022-11-20T03:10:57.385Z,14.35
2022-11-20T03:11:20.152Z,15.07
2022-11-20T03:11:42.863Z,16.25
2022-11-20T03:12:06.624Z,15.00
2022-11-20T03:12:29.338Z,15.13
2022-11-20T03:12:57.392Z,15.40
2022-11-20T03:13:20.132Z,16.33
2022-11-20T03:13:42.885Z,16.27
2022-11-20T03:14:05.823Z,15.30
2022-11-20T03:14:28.567Z,16.52
2022-11-20T03:14:53.210Z,15.98
2022-11-20T03:15:16.585Z,15.90
2022-11-20T03:15:39.289Z,16.10
2022-11-20T03:16:09.810Z,16.58
2022-11-20T03:16:32.528Z,17.83
2022-11-20T03:16:55.184Z,17.73
2022-11-20T03:17:17.932Z,17.40
2022-11-20T03:17:41.755Z,15.80
2022-11-20T03:18:04.846Z,16.80
2022-11-20T03:18:30.253Z,16.23
2022-11-20T03:18:54.293Z,15.65
2022-11-20T03:19:17.113Z,16.60
2022-11-20T03:19:39.814Z,16.48
2022-11-20T03:20:02.586Z,16.27
2022-11-20T03:20:25.423Z,16.60
2022-11-20T03:20:50.673Z,16.77
2022-11-20T03:21:13.736Z,16.98
2022-11-20T03:21:36.519Z,17.52
2022-11-20T03:22:01.657Z,16.70
2022-11-20T03:22:24.399Z,16.55
2022-11-20T03:22:47.140Z,16.90
2022-11-20T03:23:09.862Z,15.73
2022-11-20T03:23:33.233Z,15.85
2022-11-20T03:23:55.918Z,16.83
2022-11-20T03:24:18.733Z,17.20
2022-11-20T03:24:41.513Z,17.90
2022-11-20T03:25:06.728Z,17.40
2022-11-20T03:25:29.429Z,17.88
2022-11-20T03:25:52.225Z,17.60
2022-11-20T03:26:16.774Z,16.90
2022-11-20T03:26:40.383Z,17.20
2022-11-20T03:27:03.108Z,16.10
2022-11-20T03:27:25.823Z,17.33
2022-11-20T03:27:48.578Z,17.40
2022-11-20T03:28:11.319Z,16.55
2022-11-20T03:28:34.043Z,16.60
2022-11-20T03:28:57.763Z,17.15
2022-11-20T03:29:20.802Z,18.08
2022-11-20T03:29:43.833Z,17.27
2022-11-20T03:30:08.636Z,17.63
2022-11-20T03:30:31.438Z,17.10
2022-11-20T03:30:54.231Z,16.60
2022-11-20T03:31:17.439Z,16.05
2022-11-20T03:31:41.593Z,16.92
2022-11-20T03:32:04.423Z,17.25
2022-11-20T03:32:27.174Z,15.98
2022-11-20T03:32:49.913Z,16.20
2022-11-20T03:33:12.743Z,16.52
2022-11-20T03:33:36.454Z,16.52
2022-11-20T03:33:59.978Z,17.10
2022-11-20T03:34:22.871Z,16.35
2022-11-20T03:34:47.998Z,16.75
2022-11-20T03:35:11.202Z,16.17
2022-11-20T03:35:33.939Z,17.00
2022-11-20T03:35:56.649Z,17.27
2022-11-20T03:36:20.243Z,16.70
2022-11-20T03:36:43.647Z,15.70
2022-11-20T03:37:06.371Z,16.13
2022-11-20T03:37:29.082Z,17.15
2022-11-20T03:37:51.836Z,17.08
2022-11-20T03:38:14.526Z,16.27
2022-11-20T03:38:37.367Z,17.38
2022-11-20T03:39:00.043Z,16.95
2022-11-20T03:39:22.940Z,16.55
2022-11-20T03:39:46.193Z,17.30
2022-11-20T03:40:11.307Z,17.55
2022-11-20T03:40:35.051Z,17.85
2022-11-20T03:41:00.981Z,17.75
2022-11-20T03:41:24.861Z,18.45
2022-11-20T03:41:47.589Z,17.23
2022-11-20T03:42:30.292Z,18.13
2022-11-20T03:42:53.022Z,18.67
2022-11-20T03:43:15.702Z,19.83
2022-11-20T03:43:38.447Z,19.15
2022-11-20T03:44:01.811Z,18.48
2022-11-20T03:44:24.701Z,18.75
2022-11-20T03:44:47.526Z,19.05
2022-11-20T03:45:10.605Z,18.55
2022-11-20T03:45:33.302Z,18.45
2022-11-20T03:45:56.066Z,18.98
2022-11-20T03:46:18.889Z,20.10
2022-11-20T03:46:41.586Z,20.17
2022-11-20T03:47:06.545Z,19.40
2022-11-20T03:47:29.771Z,19.05
2022-11-20T03:47:52.806Z,18.80
2022-11-20T03:48:15.501Z,19.88
2022-11-20T03:48:38.245Z,19.73
2022-11-20T03:49:00.968Z,18.58
2022-11-20T03:49:24.002Z,18.58
2022-11-20T03:49:47.050Z,18.25
2022-11-20T03:50:10.992Z,19.02
2022-11-20T03:50:33.671Z,17.58
2022-11-20T03:51:08.574Z,17.63
2022-11-20T03:51:32.217Z,17.73
2022-11-20T03:51:55.027Z,18.52
2022-11-20T03:52:17.671Z,18.27
2022-11-20T03:52:40.482Z,17.75
2022-11-20T03:53:03.310Z,17.90
2022-11-20T03:53:26.206Z,17.17
2022-11-20T03:53:49.289Z,17.50
2022-11-20T03:54:11.992Z,17.52
2022-11-20T03:54:34.807Z,17.02
2022-11-20T03:54:57.666Z,16.35
2022-11-20T03:55:24.647Z,17.15
2022-11-20T03:55:51.535Z,17.40
2022-11-20T03:56:15.041Z,17.80
2022-11-20T03:56:39.070Z,17.50
2022-11-20T03:57:01.772Z,17.83
2022-11-20T03:57:24.495Z,17.17
2022-11-20T03:57:47.232Z,18.08
2022-11-20T03:58:09.912Z,16.55
2022-11-20T03:58:33.443Z,16.30
2022-11-20T03:58:56.354Z,16.85
2022-11-20T03:59:19.413Z,17.17
2022-11-20T03:59:42.366Z,18.30
2022-11-20T04:00:06.525Z,17.35
2022-11-20T04:00:29.288Z,17.85
2022-11-20T04:00:55.223Z,17.58
2022-11-20T04:01:19.114Z,18.92
2022-11-20T04:01:44.266Z,18.55
2022-11-20T04:02:09.643Z,18.17
2022-11-20T04:02:32.512Z,17.60
2022-11-20T04:02:55.245Z,17.40
2022-11-20T04:03:17.977Z,18.15
2022-11-20T04:03:41.806Z,18.95
2022-11-20T04:04:04.802Z,17.45
2022-11-20T04:04:27.533Z,17.50
2022-11-20T04:04:50.405Z,17.25
2022-11-20T04:05:13.151Z,18.00
2022-11-20T04:05:35.888Z,17.67
2022-11-20T04:06:03.392Z,18.23
2022-11-20T04:06:27.577Z,16.90
2022-11-20T04:06:50.348Z,16.73
2022-11-20T04:07:13.213Z,17.63
2022-11-20T04:07:37.008Z,16.83
2022-11-20T04:07:59.873Z,15.52
2022-11-20T04:08:22.619Z,15.80
2022-11-20T04:08:48.544Z,16.23
2022-11-20T04:09:14.524Z,17.35
2022-11-20T04:09:37.193Z,17.63
2022-11-20T04:09:59.943Z,16.33
2022-11-20T04:10:24.143Z,16.92
2022-11-20T04:10:46.966Z,16.90
2022-11-20T04:11:11.257Z,17.50
2022-11-20T04:11:34.545Z,16.08
2022-11-20T04:11:57.287Z,16.15
2022-11-20T04:12:19.935Z,16.88
2022-11-20T04:12:42.692Z,16.38
2022-11-20T04:13:05.480Z,17.25
2022-11-20T04:13:28.172Z,16.83
2022-11-20T04:13:51.664Z,16.15
2022-11-20T04:14:15.678Z,15.70
2022-11-20T04:14:38.446Z,16.33
2022-11-20T04:15:02.393Z,16.63
2022-11-20T04:15:25.164Z,17.63
2022-11-20T04:15:47.921Z,16.95
2022-11-20T04:16:13.359Z,16.98
2022-11-20T04:16:37.065Z,15.88
2022-11-20T04:16:59.853Z,16.13
2022-11-20T04:17:22.518Z,16.40
2022-11-20T04:17:45.167Z,17.48
2022-11-20T04:18:07.772Z,15.45
2022-11-20T04:18:30.562Z,15.55
2022-11-20T04:18:54.306Z,14.93
2022-11-20T04:19:19.957Z,15.48
2022-11-20T04:19:42.952Z,16.45
2022-11-20T04:20:07.772Z,16.00
2022-11-20T04:20:30.505Z,16.58
2022-11-20T04:20:53.294Z,17.27
2022-11-20T04:21:16.058Z,16.58
2022-11-20T04:21:38.764Z,16.58
2022-11-20T04:22:01.472Z,16.90
2022-11-20T04:22:24.205Z,15.85
2022-11-20T04:22:46.889Z,16.13
2022-11-20T04:23:12.460Z,16.33
2022-11-20T04:23:35.223Z,15.73
2022-11-20T04:23:58.051Z,15.90
2022-11-20T04:24:20.806Z,15.90
2022-11-20T04:24:43.528Z,16.13
2022-11-20T04:25:06.963Z,15.95
2022-11-20T04:25:31.272Z,16.02
2022-11-20T04:25:53.993Z,15.43
2022-11-20T04:26:16.886Z,15.13
2022-11-20T04:26:40.037Z,16.27
2022-11-20T04:27:02.834Z,17.15
2022-11-20T04:27:25.604Z,16.00
2022-11-20T04:27:48.385Z,16.92
2022-11-20T04:28:11.088Z,17.48
2022-11-20T04:28:33.926Z,17.58
2022-11-20T04:28:56.853Z,16.92
2022-11-20T04:29:20.028Z,16.80
2022-11-20T04:29:42.954Z,18.60
2022-11-20T04:30:07.307Z,16.50
2022-11-20T04:30:29.978Z,15.73
2022-11-20T04:30:56.459Z,16.75
2022-11-20T04:31:20.987Z,17.13
2022-11-20T04:31:43.777Z,16.15
2022-11-20T04:32:06.589Z,15.95
2022-11-20T04:32:29.403Z,15.60
2022-11-20T04:32:52.099Z,16.95
2022-11-20T04:33:14.829Z,17.23
2022-11-20T04:33:37.823Z,17.15
2022-11-20T04:34:03.543Z,17.08
2022-11-20T04:34:26.392Z,16.33
2022-11-20T04:34:49.133Z,18.55
2022-11-20T04:35:14.095Z,15.93
2022-11-20T04:35:37.013Z,16.02
2022-11-20T04:36:03.057Z,16.02
2022-11-20T04:36:27.232Z,15.18
2022-11-20T04:36:49.943Z,15.20
2022-11-20T04:37:12.639Z,17.17
2022-11-20T04:37:37.978Z,16.33
2022-11-20T04:38:00.774Z,15.98
2022-11-20T04:38:23.540Z,16.95
2022-11-20T04:38:46.494Z,16.25
2022-11-20T04:39:13.166Z,16.13
2022-11-20T04:39:35.923Z,16.30
2022-11-20T04:39:58.602Z,16.27
2022-11-20T04:40:21.560Z,15.73
2022-11-20T04:40:45.657Z,15.82
2022-11-20T04:41:09.793Z,15.70
2022-11-20T04:41:33.557Z,15.88
2022-11-20T04:42:14.743Z,15.82
2022-11-20T04:42:37.603Z,16.10
2022-11-20T04:43:00.646Z,17.48
2022-11-20T04:43:23.399Z,17.48
2022-11-20T04:43:48.648Z,16.20
2022-11-20T04:44:11.428Z,15.73
2022-11-20T04:44:34.189Z,17.90
2022-11-20T04:44:56.823Z,16.58
2022-11-20T04:45:19.487Z,18.30
2022-11-20T04:45:42.196Z,17.50
2022-11-20T04:46:07.565Z,17.45
2022-11-20T04:46:30.878Z,17.50
2022-11-20T04:46:53.603Z,16.63
2022-11-20T04:47:16.293Z,16.98
2022-11-20T04:47:38.999Z,16.90
2022-11-20T04:48:01.768Z,17.40
2022-11-20T04:48:24.758Z,16.40
2022-11-20T04:48:48.025Z,17.25
2022-11-20T04:49:11.673Z,16.58
2022-11-20T04:49:35.345Z,15.68
2022-11-20T04:49:58.158Z,16.13
2022-11-20T04:50:21.008Z,15.77
2022-11-20T04:50:44.775Z,16.13
2022-11-20T04:51:07.553Z,17.77
2022-11-20T04:51:30.357Z,16.52
2022-11-20T04:51:54.659Z,16.40
2022-11-20T04:52:17.443Z,15.65
2022-11-20T04:52:40.220Z,17.02
2022-11-20T04:53:02.947Z,16.25
2022-11-20T04:53:25.605Z,15.85
2022-11-20T04:53:48.336Z,16.90
2022-11-20T04:54:11.683Z,16.80
2022-11-20T04:54:34.418Z,16.50
2022-11-20T04:54:57.469Z,16.85
2022-11-20T04:55:20.247Z,16.27
2022-11-20T04:55:45.123Z,15.77
2022-11-20T04:56:11.375Z,16.55
2022-11-20T04:56:34.257Z,16.38
2022-11-20T04:56:56.973Z,16.38
2022-11-20T04:57:19.694Z,17.30
2022-11-20T04:57:42.438Z,17.60
2022-11-20T04:58:05.226Z,17.38
2022-11-20T04:58:30.382Z,18.02
2022-11-20T04:58:53.017Z,19.17
2022-11-20T04:59:15.843Z,20.30
2022-11-20T04:59:38.747Z,18.17
2022-11-20T05:00:01.449Z,17.95
2022-11-20T05:00:24.328Z,18.25
2022-11-20T05:00:47.544Z,17.92
2022-11-20T05:01:12.524Z,18.65
2022-11-20T05:01:35.435Z,19.50
2022-11-20T05:01:58.301Z,20.50
2022-11-20T05:02:21.642Z,20.02
2022-11-20T05:02:44.402Z,19.75
2022-11-20T05:03:07.363Z,20.02
2022-11-20T05:03:30.092Z,20.67
2022-11-20T05:03:52.919Z,21.33
2022-11-20T05:04:15.594Z,19.88
2022-11-20T05:04:38.557Z,19.88
2022-11-20T05:05:01.311Z,21.50
2022-11-20T05:05:24.098Z,21.58
2022-11-20T05:05:46.783Z,21.13
2022-11-20T05:06:09.793Z,20.65
2022-11-20T05:06:32.537Z,20.92